sensor_id;sensor_type;location;lat;lon;timestamp;temperature;humidity
69387;SHT31;56575;48.942;8.404;2023-04-05T00:00:53;4.20;61.04
69387;SHT31;56575;48.942;8.404;2023-04-05T00:03:19;4.17;59.89
69387;SHT31;56575;48.942;8.404;2023-04-05T00:05:45;4.14;59.59
69387;SHT31;56575;48.942;8.404;2023-04-05T00:08:10;4.03;61.06
69387;SHT31;56575;48.942;8.404;2023-04-05T00:10:48;4.05;60.96
69387;SHT31;56575;48.942;8.404;2023-04-05T00:13:15;4.07;61.43
69387;SHT31;56575;48.942;8.404;2023-04-05T00:15:40;4.07;61.32
69387;SHT31;56575;48.942;8.404;2023-04-05T00:18:05;4.03;61.36
69387;SHT31;56575;48.942;8.404;2023-04-05T00:20:31;3.96;60.83
69387;SHT31;56575;48.942;8.404;2023-04-05T00:22:58;3.99;61.51
69387;SHT31;56575;48.942;8.404;2023-04-05T00:25:23;3.92;61.00
69387;SHT31;56575;48.942;8.404;2023-04-05T00:27:50;3.91;61.13
69387;SHT31;56575;48.942;8.404;2023-04-05T00:30:16;3.93;62.73
69387;SHT31;56575;48.942;8.404;2023-04-05T00:32:48;3.91;61.65
69387;SHT31;56575;48.942;8.404;2023-04-05T00:35:14;3.78;61.87
69387;SHT31;56575;48.942;8.404;2023-04-05T00:37:39;3.78;61.70
69387;SHT31;56575;48.942;8.404;2023-04-05T00:40:06;3.74;62.36
69387;SHT31;56575;48.942;8.404;2023-04-05T00:42:31;3.72;62.63
69387;SHT31;56575;48.942;8.404;2023-04-05T00:44:57;3.70;62.17
69387;SHT31;56575;48.942;8.404;2023-04-05T00:47:22;3.72;62.51
69387;SHT31;56575;48.942;8.404;2023-04-05T00:49:48;3.81;63.25
69387;SHT31;56575;48.942;8.404;2023-04-05T00:52:14;3.83;62.64
69387;SHT31;56575;48.942;8.404;2023-04-05T00:54:40;3.85;62.19
69387;SHT31;56575;48.942;8.404;2023-04-05T00:57:07;3.88;62.87
69387;SHT31;56575;48.942;8.404;2023-04-05T00:59:33;3.91;61.62
69387;SHT31;56575;48.942;8.404;2023-04-05T01:02:10;3.89;62.47
69387;SHT31;56575;48.942;8.404;2023-04-05T01:04:40;3.88;62.02
69387;SHT31;56575;48.942;8.404;2023-04-05T01:07:24;3.86;61.74
69387;SHT31;56575;48.942;8.404;2023-04-05T01:09:58;3.83;62.09
69387;SHT31;56575;48.942;8.404;2023-04-05T01:12:27;3.79;61.71
69387;SHT31;56575;48.942;8.404;2023-04-05T01:14:54;3.79;61.04
69387;SHT31;56575;48.942;8.404;2023-04-05T01:17:22;3.74;60.84
69387;SHT31;56575;48.942;8.404;2023-04-05T01:19:59;3.75;59.90
69387;SHT31;56575;48.942;8.404;2023-04-05T01:30:25;3.81;59.93
69387;SHT31;56575;48.942;8.404;2023-04-05T01:35:39;3.86;60.40
69387;SHT31;56575;48.942;8.404;2023-04-05T01:38:10;3.70;61.18
69387;SHT31;56575;48.942;8.404;2023-04-05T01:40:39;3.63;61.97
69387;SHT31;56575;48.942;8.404;2023-04-05T01:43:15;3.55;62.87
69387;SHT31;56575;48.942;8.404;2023-04-05T01:45:41;3.47;63.39
69387;SHT31;56575;48.942;8.404;2023-04-05T01:48:06;3.43;64.21
69387;SHT31;56575;48.942;8.404;2023-04-05T01:50:32;3.38;64.04
69387;SHT31;56575;48.942;8.404;2023-04-05T01:52:57;3.38;64.41
69387;SHT31;56575;48.942;8.404;2023-04-05T01:55:23;3.36;63.99
69387;SHT31;56575;48.942;8.404;2023-04-05T01:57:48;3.31;64.14
69387;SHT31;56575;48.942;8.404;2023-04-05T02:00:13;3.26;64.81
69387;SHT31;56575;48.942;8.404;2023-04-05T02:02:39;3.26;64.35
69387;SHT31;56575;48.942;8.404;2023-04-05T02:05:05;3.23;64.49
69387;SHT31;56575;48.942;8.404;2023-04-05T02:07:30;3.15;64.11
69387;SHT31;56575;48.942;8.404;2023-04-05T02:09:56;3.13;64.47
69387;SHT31;56575;48.942;8.404;2023-04-05T02:12:21;3.10;63.90
69387;SHT31;56575;48.942;8.404;2023-04-05T02:14:47;3.03;64.21
69387;SHT31;56575;48.942;8.404;2023-04-05T02:17:12;2.96;63.61
69387;SHT31;56575;48.942;8.404;2023-04-05T02:19:37;2.84;64.15
69387;SHT31;56575;48.942;8.404;2023-04-05T02:22:07;2.77;64.21
69387;SHT31;56575;48.942;8.404;2023-04-05T02:24:32;2.70;64.93
69387;SHT31;56575;48.942;8.404;2023-04-05T02:26:58;2.54;65.29
69387;SHT31;56575;48.942;8.404;2023-04-05T02:29:24;2.54;65.46
69387;SHT31;56575;48.942;8.404;2023-04-05T02:31:50;2.53;66.18
69387;SHT31;56575;48.942;8.404;2023-04-05T02:34:15;2.58;66.29
69387;SHT31;56575;48.942;8.404;2023-04-05T02:36:41;2.61;65.43
69387;SHT31;56575;48.942;8.404;2023-04-05T02:39:06;2.60;65.49
69387;SHT31;56575;48.942;8.404;2023-04-05T02:41:32;2.61;65.14
69387;SHT31;56575;48.942;8.404;2023-04-05T02:43:57;2.61;64.86
69387;SHT31;56575;48.942;8.404;2023-04-05T02:46:24;2.54;65.07
69387;SHT31;56575;48.942;8.404;2023-04-05T02:48:49;2.54;65.40
69387;SHT31;56575;48.942;8.404;2023-04-05T02:51:15;2.51;65.60
69387;SHT31;56575;48.942;8.404;2023-04-05T02:53:40;2.51;65.43
69387;SHT31;56575;48.942;8.404;2023-04-05T02:56:06;2.47;65.47
69387;SHT31;56575;48.942;8.404;2023-04-05T02:58:32;2.50;65.53
69387;SHT31;56575;48.942;8.404;2023-04-05T03:00:58;2.48;66.20
69387;SHT31;56575;48.942;8.404;2023-04-05T03:03:26;2.46;66.10
69387;SHT31;56575;48.942;8.404;2023-04-05T03:05:58;2.46;66.20
69387;SHT31;56575;48.942;8.404;2023-04-05T03:08:34;2.46;66.53
69387;SHT31;56575;48.942;8.404;2023-04-05T03:11:00;2.46;66.40
69387;SHT31;56575;48.942;8.404;2023-04-05T03:13:26;2.43;66.29
69387;SHT31;56575;48.942;8.404;2023-04-05T03:15:54;2.43;66.74
69387;SHT31;56575;48.942;8.404;2023-04-05T03:18:19;2.34;66.84
69387;SHT31;56575;48.942;8.404;2023-04-05T03:20:46;2.33;66.40
69387;SHT31;56575;48.942;8.404;2023-04-05T03:23:14;2.36;66.71
69387;SHT31;56575;48.942;8.404;2023-04-05T03:25:39;2.29;66.96
69387;SHT31;56575;48.942;8.404;2023-04-05T03:28:06;2.26;67.41
69387;SHT31;56575;48.942;8.404;2023-04-05T03:30:33;2.22;67.66
69387;SHT31;56575;48.942;8.404;2023-04-05T03:32:59;2.22;67.86
69387;SHT31;56575;48.942;8.404;2023-04-05T03:35:29;2.25;68.65
69387;SHT31;56575;48.942;8.404;2023-04-05T03:37:55;2.19;68.33
69387;SHT31;56575;48.942;8.404;2023-04-05T03:40:22;2.18;68.38
69387;SHT31;56575;48.942;8.404;2023-04-05T03:42:47;2.13;68.64
69387;SHT31;56575;48.942;8.404;2023-04-05T03:45:13;2.09;68.95
69387;SHT31;56575;48.942;8.404;2023-04-05T03:47:38;2.06;69.25
69387;SHT31;56575;48.942;8.404;2023-04-05T03:50:04;2.05;69.38
69387;SHT31;56575;48.942;8.404;2023-04-05T03:52:30;1.99;68.98
69387;SHT31;56575;48.942;8.404;2023-04-05T03:54:55;1.94;69.58
69387;SHT31;56575;48.942;8.404;2023-04-05T03:57:20;1.89;69.94
69387;SHT31;56575;48.942;8.404;2023-04-05T03:59:46;1.86;69.76
69387;SHT31;56575;48.942;8.404;2023-04-05T04:02:11;1.88;69.67
69387;SHT31;56575;48.942;8.404;2023-04-05T04:04:37;1.82;69.97
69387;SHT31;56575;48.942;8.404;2023-04-05T04:07:02;1.82;70.63
69387;SHT31;56575;48.942;8.404;2023-04-05T04:09:28;1.78;70.37
69387;SHT31;56575;48.942;8.404;2023-04-05T04:11:54;1.78;70.46
69387;SHT31;56575;48.942;8.404;2023-04-05T04:14:24;1.75;70.70
69387;SHT31;56575;48.942;8.404;2023-04-05T04:16:49;1.77;70.69
69387;SHT31;56575;48.942;8.404;2023-04-05T04:19:25;1.77;70.45
69387;SHT31;56575;48.942;8.404;2023-04-05T04:21:53;1.71;70.85
69387;SHT31;56575;48.942;8.404;2023-04-05T04:24:20;1.72;71.18
69387;SHT31;56575;48.942;8.404;2023-04-05T04:26:46;1.72;71.17
69387;SHT31;56575;48.942;8.404;2023-04-05T04:29:11;1.78;70.98
69387;SHT31;56575;48.942;8.404;2023-04-05T04:31:38;1.78;71.41
69387;SHT31;56575;48.942;8.404;2023-04-05T04:34:04;1.74;71.47
69387;SHT31;56575;48.942;8.404;2023-04-05T04:36:31;1.68;71.57
69387;SHT31;56575;48.942;8.404;2023-04-05T04:39:01;1.65;71.58
69387;SHT31;56575;48.942;8.404;2023-04-05T04:41:29;1.63;71.11
69387;SHT31;56575;48.942;8.404;2023-04-05T04:44:07;1.60;70.74
69387;SHT31;56575;48.942;8.404;2023-04-05T04:46:33;1.60;71.21
69387;SHT31;56575;48.942;8.404;2023-04-05T04:49:13;1.58;70.53
69387;SHT31;56575;48.942;8.404;2023-04-05T04:51:44;1.58;70.91
69387;SHT31;56575;48.942;8.404;2023-04-05T04:54:09;1.55;71.30
69387;SHT31;56575;48.942;8.404;2023-04-05T04:56:34;1.46;71.41
69387;SHT31;56575;48.942;8.404;2023-04-05T04:59:00;1.50;71.48
69387;SHT31;56575;48.942;8.404;2023-04-05T05:01:25;1.51;71.25
69387;SHT31;56575;48.942;8.404;2023-04-05T05:03:51;1.48;71.40
69387;SHT31;56575;48.942;8.404;2023-04-05T05:06:17;1.47;70.98
69387;SHT31;56575;48.942;8.404;2023-04-05T05:08:46;1.50;70.69
69387;SHT31;56575;48.942;8.404;2023-04-05T05:11:12;1.48;70.81
69387;SHT31;56575;48.942;8.404;2023-04-05T05:13:37;1.53;70.88
69387;SHT31;56575;48.942;8.404;2023-04-05T05:16:03;1.53;71.63
69387;SHT31;56575;48.942;8.404;2023-04-05T05:18:29;1.60;72.57
69387;SHT31;56575;48.942;8.404;2023-04-05T05:20:55;1.57;72.32
69387;SHT31;56575;48.942;8.404;2023-04-05T05:23:20;1.53;71.79
69387;SHT31;56575;48.942;8.404;2023-04-05T05:25:46;1.51;71.83
69387;SHT31;56575;48.942;8.404;2023-04-05T05:28:11;1.36;72.17
69387;SHT31;56575;48.942;8.404;2023-04-05T05:30:36;1.40;72.74
69387;SHT31;56575;48.942;8.404;2023-04-05T05:33:02;1.37;72.65
69387;SHT31;56575;48.942;8.404;2023-04-05T05:35:28;1.39;72.01
69387;SHT31;56575;48.942;8.404;2023-04-05T05:37:53;1.40;71.72
69387;SHT31;56575;48.942;8.404;2023-04-05T05:40:18;1.42;71.57
69387;SHT31;56575;48.942;8.404;2023-04-05T05:42:44;1.39;71.50
69387;SHT31;56575;48.942;8.404;2023-04-05T05:45:10;1.40;71.43
69387;SHT31;56575;48.942;8.404;2023-04-05T05:47:36;1.39;72.11
69387;SHT31;56575;48.942;8.404;2023-04-05T05:50:01;1.39;72.02
69387;SHT31;56575;48.942;8.404;2023-04-05T05:52:27;1.40;72.14
69387;SHT31;56575;48.942;8.404;2023-04-05T05:54:53;1.43;72.09
69387;SHT31;56575;48.942;8.404;2023-04-05T05:57:18;1.40;72.09
69387;SHT31;56575;48.942;8.404;2023-04-05T05:59:44;1.42;72.03
69387;SHT31;56575;48.942;8.404;2023-04-05T06:02:09;1.44;72.41
69387;SHT31;56575;48.942;8.404;2023-04-05T06:04:35;1.46;72.24
69387;SHT31;56575;48.942;8.404;2023-04-05T06:07:02;1.51;72.21
69387;SHT31;56575;48.942;8.404;2023-04-05T06:09:28;1.51;72.09
69387;SHT31;56575;48.942;8.404;2023-04-05T06:11:54;1.57;71.89
69387;SHT31;56575;48.942;8.404;2023-04-05T06:14:20;1.60;71.55
69387;SHT31;56575;48.942;8.404;2023-04-05T06:16:46;1.60;71.18
69387;SHT31;56575;48.942;8.404;2023-04-05T06:19:11;1.60;71.31
69387;SHT31;56575;48.942;8.404;2023-04-05T06:21:36;1.64;70.96
69387;SHT31;56575;48.942;8.404;2023-04-05T06:24:02;1.67;71.13
69387;SHT31;56575;48.942;8.404;2023-04-05T06:26:27;1.72;70.68
69387;SHT31;56575;48.942;8.404;2023-04-05T06:28:54;1.77;70.42
69387;SHT31;56575;48.942;8.404;2023-04-05T06:31:25;1.82;70.35
69387;SHT31;56575;48.942;8.404;2023-04-05T06:33:50;1.86;70.33
69387;SHT31;56575;48.942;8.404;2023-04-05T06:36:16;1.88;70.56
69387;SHT31;56575;48.942;8.404;2023-04-05T06:38:41;1.95;70.32
69387;SHT31;56575;48.942;8.404;2023-04-05T06:41:07;2.03;69.75
69387;SHT31;56575;48.942;8.404;2023-04-05T06:43:32;2.06;69.91
69387;SHT31;56575;48.942;8.404;2023-04-05T06:45:58;2.10;69.45
69387;SHT31;56575;48.942;8.404;2023-04-05T06:48:23;2.12;68.69
69387;SHT31;56575;48.942;8.404;2023-04-05T06:50:58;2.19;69.48
69387;SHT31;56575;48.942;8.404;2023-04-05T06:53:25;2.27;68.65
69387;SHT31;56575;48.942;8.404;2023-04-05T06:55:56;2.32;68.40
69387;SHT31;56575;48.942;8.404;2023-04-05T06:58:22;2.38;68.38
69387;SHT31;56575;48.942;8.404;2023-04-05T07:00:49;2.43;68.90
69387;SHT31;56575;48.942;8.404;2023-04-05T07:03:14;2.48;68.96
69387;SHT31;56575;48.942;8.404;2023-04-05T07:05:40;2.54;68.18
69387;SHT31;56575;48.942;8.404;2023-04-05T07:08:06;2.62;68.89
69387;SHT31;56575;48.942;8.404;2023-04-05T07:10:31;2.64;68.41
69387;SHT31;56575;48.942;8.404;2023-04-05T07:18:17;2.93;67.26
69387;SHT31;56575;48.942;8.404;2023-04-05T07:20:47;2.99;67.29
69387;SHT31;56575;48.942;8.404;2023-04-05T07:23:32;3.06;66.15
69387;SHT31;56575;48.942;8.404;2023-04-05T07:26:01;3.12;66.10
69387;SHT31;56575;48.942;8.404;2023-04-05T07:28:29;3.23;65.81
69387;SHT31;56575;48.942;8.404;2023-04-05T07:30:55;3.30;65.95
69387;SHT31;56575;48.942;8.404;2023-04-05T07:33:21;3.40;64.91
69387;SHT31;56575;48.942;8.404;2023-04-05T07:35:54;3.50;64.55
69387;SHT31;56575;48.942;8.404;2023-04-05T07:38:20;3.54;64.52
69387;SHT31;56575;48.942;8.404;2023-04-05T07:40:50;3.61;64.46
69387;SHT31;56575;48.942;8.404;2023-04-05T07:43:18;3.70;64.62
69387;SHT31;56575;48.942;8.404;2023-04-05T07:45:44;3.77;63.30
69387;SHT31;56575;48.942;8.404;2023-04-05T07:48:09;3.77;62.93
69387;SHT31;56575;48.942;8.404;2023-04-05T07:50:35;3.81;62.68
69387;SHT31;56575;48.942;8.404;2023-04-05T07:53:04;3.89;62.79
69387;SHT31;56575;48.942;8.404;2023-04-05T07:55:32;3.98;62.40
69387;SHT31;56575;48.942;8.404;2023-04-05T07:58:00;4.09;62.73
69387;SHT31;56575;48.942;8.404;2023-04-05T08:00:25;4.06;62.10
69387;SHT31;56575;48.942;8.404;2023-04-05T08:02:51;4.19;62.10
69387;SHT31;56575;48.942;8.404;2023-04-05T08:05:17;4.32;61.98
69387;SHT31;56575;48.942;8.404;2023-04-05T08:07:42;4.36;61.19
69387;SHT31;56575;48.942;8.404;2023-04-05T08:10:08;4.46;61.25
69387;SHT31;56575;48.942;8.404;2023-04-05T08:12:33;4.53;60.58
69387;SHT31;56575;48.942;8.404;2023-04-05T08:14:59;4.60;60.93
69387;SHT31;56575;48.942;8.404;2023-04-05T08:17:25;4.65;59.96
69387;SHT31;56575;48.942;8.404;2023-04-05T08:19:52;4.76;60.63
69387;SHT31;56575;48.942;8.404;2023-04-05T08:22:18;4.88;60.38
69387;SHT31;56575;48.942;8.404;2023-04-05T08:24:44;4.93;59.56
69387;SHT31;56575;48.942;8.404;2023-04-05T08:27:10;4.99;59.73
69387;SHT31;56575;48.942;8.404;2023-04-05T08:29:35;5.03;59.57
69387;SHT31;56575;48.942;8.404;2023-04-05T08:32:01;5.10;59.41
69387;SHT31;56575;48.942;8.404;2023-04-05T08:34:27;5.18;58.92
69387;SHT31;56575;48.942;8.404;2023-04-05T08:36:57;5.26;58.98
69387;SHT31;56575;48.942;8.404;2023-04-05T08:39:23;5.24;58.65
69387;SHT31;56575;48.942;8.404;2023-04-05T08:42:12;5.30;58.49
69387;SHT31;56575;48.942;8.404;2023-04-05T08:44:40;5.46;58.77
69387;SHT31;56575;48.942;8.404;2023-04-05T08:47:07;5.55;58.51
69387;SHT31;56575;48.942;8.404;2023-04-05T08:49:32;5.66;58.26
69387;SHT31;56575;48.942;8.404;2023-04-05T08:51:59;5.76;58.25
69387;SHT31;56575;48.942;8.404;2023-04-05T08:54:25;5.86;57.68
69387;SHT31;56575;48.942;8.404;2023-04-05T08:56:51;5.98;57.00
69387;SHT31;56575;48.942;8.404;2023-04-05T08:59:18;6.06;56.89
69387;SHT31;56575;48.942;8.404;2023-04-05T09:01:46;6.14;56.00
69387;SHT31;56575;48.942;8.404;2023-04-05T09:04:17;6.27;55.43
69387;SHT31;56575;48.942;8.404;2023-04-05T09:06:57;6.41;55.10
69387;SHT31;56575;48.942;8.404;2023-04-05T09:09:49;6.54;54.07
69387;SHT31;56575;48.942;8.404;2023-04-05T09:15:42;6.71;52.70
69387;SHT31;56575;48.942;8.404;2023-04-05T09:18:29;6.88;52.56
69387;SHT31;56575;48.942;8.404;2023-04-05T09:21:04;7.02;51.17
69387;SHT31;56575;48.942;8.404;2023-04-05T09:23:52;7.14;49.56
69387;SHT31;56575;48.942;8.404;2023-04-05T09:26:19;7.30;48.66
69387;SHT31;56575;48.942;8.404;2023-04-05T09:28:48;7.37;47.82
69387;SHT31;56575;48.942;8.404;2023-04-05T09:31:36;7.48;48.90
69387;SHT31;56575;48.942;8.404;2023-04-05T09:34:03;7.58;46.31
69387;SHT31;56575;48.942;8.404;2023-04-05T09:36:32;7.78;46.39
69387;SHT31;56575;48.942;8.404;2023-04-05T09:39:06;7.95;47.54
69387;SHT31;56575;48.942;8.404;2023-04-05T09:41:32;7.93;44.90
69387;SHT31;56575;48.942;8.404;2023-04-05T09:43:58;8.00;45.52
69387;SHT31;56575;48.942;8.404;2023-04-05T09:46:32;8.27;45.75
69387;SHT31;56575;48.942;8.404;2023-04-05T09:48:58;8.57;45.16
69387;SHT31;56575;48.942;8.404;2023-04-05T09:51:31;8.78;44.55
69387;SHT31;56575;48.942;8.404;2023-04-05T09:54:05;9.00;43.69
69387;SHT31;56575;48.942;8.404;2023-04-05T09:56:39;9.30;42.61
69387;SHT31;56575;48.942;8.404;2023-04-05T09:59:06;9.54;41.23
69387;SHT31;56575;48.942;8.404;2023-04-05T10:01:33;9.75;41.10
69387;SHT31;56575;48.942;8.404;2023-04-05T10:03:59;10.07;41.69
69387;SHT31;56575;48.942;8.404;2023-04-05T10:06:43;10.20;38.80
69387;SHT31;56575;48.942;8.404;2023-04-05T10:09:10;10.40;40.13
69387;SHT31;56575;48.942;8.404;2023-04-05T10:11:36;10.61;38.40
69387;SHT31;56575;48.942;8.404;2023-04-05T10:14:04;10.54;37.45
69387;SHT31;56575;48.942;8.404;2023-04-05T10:22:35;11.69;36.33
69387;SHT31;56575;48.942;8.404;2023-04-05T10:25:23;12.00;35.72
69387;SHT31;56575;48.942;8.404;2023-04-05T10:27:53;12.33;35.61
69387;SHT31;56575;48.942;8.404;2023-04-05T10:30:28;12.48;36.89
69387;SHT31;56575;48.942;8.404;2023-04-05T10:33:19;12.82;35.08
69387;SHT31;56575;48.942;8.404;2023-04-05T10:35:52;13.14;34.23
69387;SHT31;56575;48.942;8.404;2023-04-05T10:38:26;13.40;33.54
69387;SHT31;56575;48.942;8.404;2023-04-05T10:41:08;13.78;33.38
69387;SHT31;56575;48.942;8.404;2023-04-05T10:43:34;14.08;32.77
69387;SHT31;56575;48.942;8.404;2023-04-05T10:46:01;14.06;31.58
69387;SHT31;56575;48.942;8.404;2023-04-05T10:48:35;14.23;31.32
69387;SHT31;56575;48.942;8.404;2023-04-05T10:51:01;13.95;32.46
69387;SHT31;56575;48.942;8.404;2023-04-05T10:53:30;14.41;32.42
69387;SHT31;56575;48.942;8.404;2023-04-05T10:55:56;15.07;30.84
69387;SHT31;56575;48.942;8.404;2023-04-05T10:58:23;15.41;29.45
69387;SHT31;56575;48.942;8.404;2023-04-05T11:00:49;15.98;30.96
69387;SHT31;56575;48.942;8.404;2023-04-05T11:03:49;16.27;28.61
69387;SHT31;56575;48.942;8.404;2023-04-05T11:06:30;16.99;28.45
69387;SHT31;56575;48.942;8.404;2023-04-05T11:11:37;16.85;28.39
69387;SHT31;56575;48.942;8.404;2023-04-05T11:14:16;16.92;27.42
69387;SHT31;56575;48.942;8.404;2023-04-05T11:16:45;17.27;27.87
69387;SHT31;56575;48.942;8.404;2023-04-05T11:19:11;17.63;27.23
69387;SHT31;56575;48.942;8.404;2023-04-05T11:21:37;17.75;26.92
69387;SHT31;56575;48.942;8.404;2023-04-05T11:24:13;17.18;26.56
69387;SHT31;56575;48.942;8.404;2023-04-05T11:29:11;18.79;26.90
69387;SHT31;56575;48.942;8.404;2023-04-05T11:31:59;16.63;27.73
69387;SHT31;56575;48.942;8.404;2023-04-05T11:34:34;17.46;27.57
69387;SHT31;56575;48.942;8.404;2023-04-05T11:37:03;18.58;26.34
69387;SHT31;56575;48.942;8.404;2023-04-05T11:39:30;18.79;25.67
69387;SHT31;56575;48.942;8.404;2023-04-05T11:42:08;15.48;27.70
69387;SHT31;56575;48.942;8.404;2023-04-05T11:45:00;17.57;28.30
69387;SHT31;56575;48.942;8.404;2023-04-05T11:47:25;18.23;27.19
69387;SHT31;56575;48.942;8.404;2023-04-05T11:49:51;18.98;26.13
69387;SHT31;56575;48.942;8.404;2023-04-05T11:52:19;19.49;26.14
69387;SHT31;56575;48.942;8.404;2023-04-05T11:54:44;20.11;25.19
69387;SHT31;56575;48.942;8.404;2023-04-05T11:57:22;20.43;24.01
69387;SHT31;56575;48.942;8.404;2023-04-05T11:59:51;19.74;23.60
69387;SHT31;56575;48.942;8.404;2023-04-05T12:02:18;19.74;23.95
69387;SHT31;56575;48.942;8.404;2023-04-05T12:04:43;19.54;25.03
69387;SHT31;56575;48.942;8.404;2023-04-05T12:07:10;20.23;24.87
69387;SHT31;56575;48.942;8.404;2023-04-05T12:09:57;20.43;23.69
69387;SHT31;56575;48.942;8.404;2023-04-05T12:12:22;21.09;22.81
69387;SHT31;56575;48.942;8.404;2023-04-05T12:15:00;20.88;23.20
69387;SHT31;56575;48.942;8.404;2023-04-05T12:20:25;21.03;23.39
69387;SHT31;56575;48.942;8.404;2023-04-05T12:22:55;21.20;23.24
69387;SHT31;56575;48.942;8.404;2023-04-05T12:25:45;17.96;24.60
69387;SHT31;56575;48.942;8.404;2023-04-05T12:28:10;18.48;24.58
69387;SHT31;56575;48.942;8.404;2023-04-05T12:30:53;19.67;25.04
69387;SHT31;56575;48.942;8.404;2023-04-05T12:33:26;20.53;23.52
69387;SHT31;56575;48.942;8.404;2023-04-05T12:35:52;20.92;23.37
69387;SHT31;56575;48.942;8.404;2023-04-05T12:38:18;21.19;22.04
69387;SHT31;56575;48.942;8.404;2023-04-05T12:40:43;21.47;21.74
69387;SHT31;56575;48.942;8.404;2023-04-05T12:43:09;21.26;23.17
69387;SHT31;56575;48.942;8.404;2023-04-05T12:45:35;19.45;24.52
69387;SHT31;56575;48.942;8.404;2023-04-05T12:48:24;19.64;23.27
69387;SHT31;56575;48.942;8.404;2023-04-05T12:50:51;19.19;23.84
69387;SHT31;56575;48.942;8.404;2023-04-05T12:53:25;18.39;24.66
69387;SHT31;56575;48.942;8.404;2023-04-05T12:55:57;17.71;24.32
69387;SHT31;56575;48.942;8.404;2023-04-05T12:58:42;18.63;24.34
69387;SHT31;56575;48.942;8.404;2023-04-05T13:01:09;18.94;23.96
69387;SHT31;56575;48.942;8.404;2023-04-05T13:03:36;20.19;24.21
69387;SHT31;56575;48.942;8.404;2023-04-05T13:06:02;20.01;22.79
69387;SHT31;56575;48.942;8.404;2023-04-05T13:08:27;19.13;22.90
69387;SHT31;56575;48.942;8.404;2023-04-05T13:10:53;16.61;25.82
69387;SHT31;56575;48.942;8.404;2023-04-05T13:13:18;18.34;23.91
69387;SHT31;56575;48.942;8.404;2023-04-05T13:15:47;19.02;24.88
69387;SHT31;56575;48.942;8.404;2023-04-05T13:18:12;18.88;23.89
69387;SHT31;56575;48.942;8.404;2023-04-05T13:20:40;18.33;24.63
69387;SHT31;56575;48.942;8.404;2023-04-05T13:23:06;19.18;23.50
69387;SHT31;56575;48.942;8.404;2023-04-05T13:25:42;19.43;23.83
69387;SHT31;56575;48.942;8.404;2023-04-05T13:28:09;18.79;24.92
69387;SHT31;56575;48.942;8.404;2023-04-05T13:30:35;19.29;23.42
69387;SHT31;56575;48.942;8.404;2023-04-05T13:33:03;19.50;22.51
69387;SHT31;56575;48.942;8.404;2023-04-05T13:35:35;19.95;22.94
69387;SHT31;56575;48.942;8.404;2023-04-05T13:38:07;20.60;22.47
69387;SHT31;56575;48.942;8.404;2023-04-05T13:40:33;20.61;22.13
69387;SHT31;56575;48.942;8.404;2023-04-05T13:43:02;20.15;21.87
69387;SHT31;56575;48.942;8.404;2023-04-05T13:45:31;20.12;22.80
69387;SHT31;56575;48.942;8.404;2023-04-05T13:47:57;19.26;22.16
69387;SHT31;56575;48.942;8.404;2023-04-05T13:50:23;16.63;22.61
69387;SHT31;56575;48.942;8.404;2023-04-05T13:52:50;17.84;24.36
69387;SHT31;56575;48.942;8.404;2023-04-05T13:55:18;17.98;22.82
69387;SHT31;56575;48.942;8.404;2023-04-05T13:57:46;18.28;22.62
69387;SHT31;56575;48.942;8.404;2023-04-05T14:03:07;18.14;23.10
69387;SHT31;56575;48.942;8.404;2023-04-05T14:05:56;18.13;24.83
69387;SHT31;56575;48.942;8.404;2023-04-05T14:08:31;16.69;23.48
69387;SHT31;56575;48.942;8.404;2023-04-05T14:11:00;16.57;23.52
69387;SHT31;56575;48.942;8.404;2023-04-05T14:13:25;16.06;23.69
69387;SHT31;56575;48.942;8.404;2023-04-05T14:15:51;16.09;24.28
69387;SHT31;56575;48.942;8.404;2023-04-05T14:18:16;15.51;25.25
69387;SHT31;56575;48.942;8.404;2023-04-05T14:20:42;15.39;24.27
69387;SHT31;56575;48.942;8.404;2023-04-05T14:23:07;15.74;24.70
69387;SHT31;56575;48.942;8.404;2023-04-05T14:25:33;15.51;24.77
69387;SHT31;56575;48.942;8.404;2023-04-05T14:27:58;15.23;24.48
69387;SHT31;56575;48.942;8.404;2023-04-05T14:30:23;15.50;24.59
69387;SHT31;56575;48.942;8.404;2023-04-05T14:32:49;16.06;25.26
69387;SHT31;56575;48.942;8.404;2023-04-05T14:35:14;14.88;25.59
69387;SHT31;56575;48.942;8.404;2023-04-05T14:37:40;14.68;25.14
69387;SHT31;56575;48.942;8.404;2023-04-05T14:40:05;14.54;25.60
69387;SHT31;56575;48.942;8.404;2023-04-05T14:42:31;14.44;24.74
69387;SHT31;56575;48.942;8.404;2023-04-05T14:44:56;14.76;25.53
69387;SHT31;56575;48.942;8.404;2023-04-05T14:47:22;15.48;25.96
69387;SHT31;56575;48.942;8.404;2023-04-05T14:49:47;16.10;24.31
69387;SHT31;56575;48.942;8.404;2023-04-05T14:52:13;16.58;25.09
69387;SHT31;56575;48.942;8.404;2023-04-05T14:54:38;16.86;23.09
69387;SHT31;56575;48.942;8.404;2023-04-05T14:57:05;17.05;23.61
69387;SHT31;56575;48.942;8.404;2023-04-05T14:59:30;17.31;23.42
69387;SHT31;56575;48.942;8.404;2023-04-05T15:01:56;16.86;22.36
69387;SHT31;56575;48.942;8.404;2023-04-05T15:04:21;15.54;24.08
69387;SHT31;56575;48.942;8.404;2023-04-05T15:06:47;16.16;24.04
69387;SHT31;56575;48.942;8.404;2023-04-05T15:09:12;16.67;23.97
69387;SHT31;56575;48.942;8.404;2023-04-05T15:11:51;15.54;22.77
69387;SHT31;56575;48.942;8.404;2023-04-05T15:14:29;16.27;24.67
69387;SHT31;56575;48.942;8.404;2023-04-05T15:16:55;16.76;24.08
69387;SHT31;56575;48.942;8.404;2023-04-05T15:19:21;16.95;22.86
69387;SHT31;56575;48.942;8.404;2023-04-05T15:22:01;17.27;22.67
69387;SHT31;56575;48.942;8.404;2023-04-05T15:24:36;17.27;21.94
69387;SHT31;56575;48.942;8.404;2023-04-05T15:27:08;17.34;21.64
69387;SHT31;56575;48.942;8.404;2023-04-05T15:29:33;17.29;22.80
69387;SHT31;56575;48.942;8.404;2023-04-05T15:31:59;17.39;22.76
69387;SHT31;56575;48.942;8.404;2023-04-05T15:34:26;17.63;23.64
69387;SHT31;56575;48.942;8.404;2023-04-05T15:36:51;17.81;21.91
69387;SHT31;56575;48.942;8.404;2023-04-05T15:39:18;17.22;21.40
69387;SHT31;56575;48.942;8.404;2023-04-05T15:41:44;16.63;22.78
69387;SHT31;56575;48.942;8.404;2023-04-05T15:44:10;16.61;21.87
69387;SHT31;56575;48.942;8.404;2023-04-05T15:46:35;16.27;23.41
69387;SHT31;56575;48.942;8.404;2023-04-05T15:49:01;16.71;23.36
69387;SHT31;56575;48.942;8.404;2023-04-05T15:51:26;16.01;22.09
69387;SHT31;56575;48.942;8.404;2023-04-05T15:53:52;16.02;23.24
69387;SHT31;56575;48.942;8.404;2023-04-05T15:56:17;16.44;22.25
69387;SHT31;56575;48.942;8.404;2023-04-05T15:58:43;16.09;23.07
69387;SHT31;56575;48.942;8.404;2023-04-05T16:01:08;15.93;21.78
69387;SHT31;56575;48.942;8.404;2023-04-05T16:03:34;16.08;22.68
69387;SHT31;56575;48.942;8.404;2023-04-05T16:05:59;16.47;22.23
69387;SHT31;56575;48.942;8.404;2023-04-05T16:08:25;16.33;21.14
69387;SHT31;56575;48.942;8.404;2023-04-05T16:10:51;16.03;21.66
69387;SHT31;56575;48.942;8.404;2023-04-05T16:13:17;16.63;23.69
69387;SHT31;56575;48.942;8.404;2023-04-05T16:15:42;15.82;21.49
69387;SHT31;56575;48.942;8.404;2023-04-05T16:18:08;16.26;22.89
69387;SHT31;56575;48.942;8.404;2023-04-05T16:20:35;16.51;21.75
69387;SHT31;56575;48.942;8.404;2023-04-05T16:23:04;16.41;20.96